sensor_id;sensor_type;location;lat;lon;timestamp;P1;durP1;ratioP1;P2;durP2;ratioP2
70457;SDS011;57919;56.194;95.716;2023-05-10T00:06:40;9.55;;;2.80;;
70457;SDS011;57919;56.194;95.716;2023-05-10T00:16:42;4.80;;;1.20;;
70457;SDS011;57919;56.194;95.716;2023-05-10T00:26:44;6.90;;;1.83;;
70457;SDS011;57919;56.194;95.716;2023-05-10T00:36:46;8.47;;;2.43;;
70457;SDS011;57919;56.194;95.716;2023-05-10T00:46:48;5.60;;;1.80;;
70457;SDS011;57919;56.194;95.716;2023-05-10T00:56:51;8.82;;;1.98;;
70457;SDS011;57919;56.194;95.716;2023-05-10T01:06:52;5.43;;;1.60;;
70457;SDS011;57919;56.194;95.716;2023-05-10T01:16:54;6.23;;;1.47;;
70457;SDS011;57919;56.194;95.716;2023-05-10T01:37:13;9.30;;;1.70;;
70457;SDS011;57919;56.194;95.716;2023-05-10T01:47:22;6.05;;;1.70;;
70457;SDS011;57919;56.194;95.716;2023-05-10T01:57:44;3.67;;;1.27;;
70457;SDS011;57919;56.194;95.716;2023-05-10T02:07:49;5.60;;;1.90;;
70457;SDS011;57919;56.194;95.716;2023-05-10T02:17:54;5.57;;;1.50;;
70457;SDS011;57919;56.194;95.716;2023-05-10T02:27:57;5.87;;;1.87;;
70457;SDS011;57919;56.194;95.716;2023-05-10T02:38:03;6.82;;;2.10;;
70457;SDS011;57919;56.194;95.716;2023-05-10T02:48:06;6.37;;;1.90;;
70457;SDS011;57919;56.194;95.716;2023-05-10T02:58:09;99.47;;;55.03;;
70457;SDS011;57919;56.194;95.716;2023-05-10T03:08:11;5.63;;;1.63;;
70457;SDS011;57919;56.194;95.716;2023-05-10T03:18:22;6.67;;;2.70;;
70457;SDS011;57919;56.194;95.716;2023-05-10T03:28:30;27.40;;;10.65;;
70457;SDS011;57919;56.194;95.716;2023-05-10T03:38:35;9.67;;;3.80;;
70457;SDS011;57919;56.194;95.716;2023-05-10T03:48:37;7.80;;;3.30;;
70457;SDS011;57919;56.194;95.716;2023-05-10T03:58:40;6.87;;;2.27;;
70457;SDS011;57919;56.194;95.716;2023-05-10T04:08:42;17.93;;;5.77;;
70457;SDS011;57919;56.194;95.716;2023-05-10T04:18:44;29.00;;;23.77;;
70457;SDS011;57919;56.194;95.716;2023-05-10T04:28:47;8.80;;;4.60;;
70457;SDS011;57919;56.194;95.716;2023-05-10T04:38:48;9.73;;;3.97;;
70457;SDS011;57919;56.194;95.716;2023-05-10T04:48:50;16.63;;;6.80;;
70457;SDS011;57919;56.194;95.716;2023-05-10T04:58:53;5.33;;;2.03;;
70457;SDS011;57919;56.194;95.716;2023-05-10T05:08:55;5.15;;;1.88;;
70457;SDS011;57919;56.194;95.716;2023-05-10T05:18:56;9.67;;;2.40;;
70457;SDS011;57919;56.194;95.716;2023-05-10T05:28:58;5.33;;;1.53;;
70457;SDS011;57919;56.194;95.716;2023-05-10T05:39:00;4.57;;;1.27;;
70457;SDS011;57919;56.194;95.716;2023-05-10T05:49:02;8.57;;;2.00;;
70457;SDS011;57919;56.194;95.716;2023-05-10T05:59:04;8.48;;;2.90;;
70457;SDS011;57919;56.194;95.716;2023-05-10T06:09:07;7.77;;;1.50;;
70457;SDS011;57919;56.194;95.716;2023-05-10T06:19:09;5.77;;;1.63;;
70457;SDS011;57919;56.194;95.716;2023-05-10T06:29:12;5.40;;;1.47;;
70457;SDS011;57919;56.194;95.716;2023-05-10T06:39:13;2.70;;;0.80;;
70457;SDS011;57919;56.194;95.716;2023-05-10T06:49:15;3.53;;;1.00;;
70457;SDS011;57919;56.194;95.716;2023-05-10T06:59:18;10.43;;;1.10;;
70457;SDS011;57919;56.194;95.716;2023-05-10T07:09:20;5.07;;;1.20;;
70457;SDS011;57919;56.194;95.716;2023-05-10T07:19:22;8.67;;;1.43;;
70457;SDS011;57919;56.194;95.716;2023-05-10T07:29:24;3.50;;;1.00;;
70457;SDS011;57919;56.194;95.716;2023-05-10T07:39:26;6.38;;;1.13;;
70457;SDS011;57919;56.194;95.716;2023-05-10T07:49:29;4.50;;;1.10;;
70457;SDS011;57919;56.194;95.716;2023-05-10T07:59:31;3.43;;;1.03;;
70457;SDS011;57919;56.194;95.716;2023-05-10T08:09:34;7.70;;;1.50;;
70457;SDS011;57919;56.194;95.716;2023-05-10T08:19:36;6.20;;;1.10;;
70457;SDS011;57919;56.194;95.716;2023-05-10T08:29:38;5.10;;;0.88;;
70457;SDS011;57919;56.194;95.716;2023-05-10T08:39:40;11.37;;;1.50;;
70457;SDS011;57919;56.194;95.716;2023-05-10T08:49:41;4.67;;;1.07;;
70457;SDS011;57919;56.194;95.716;2023-05-10T08:59:47;6.47;;;2.20;;
70457;SDS011;57919;56.194;95.716;2023-05-10T09:09:49;8.93;;;1.47;;
70457;SDS011;57919;56.194;95.716;2023-05-10T09:20:01;6.22;;;1.25;;
70457;SDS011;57919;56.194;95.716;2023-05-10T09:30:06;3.53;;;0.80;;
70457;SDS011;57919;56.194;95.716;2023-05-10T09:40:15;8.90;;;1.97;;
70457;SDS011;57919;56.194;95.716;2023-05-10T09:50:20;6.43;;;1.83;;
70457;SDS011;57919;56.194;95.716;2023-05-10T10:00:23;6.87;;;0.93;;
70457;SDS011;57919;56.194;95.716;2023-05-10T10:10:25;12.63;;;2.92;;
70457;SDS011;57919;56.194;95.716;2023-05-10T10:20:28;5.60;;;1.40;;
70457;SDS011;57919;56.194;95.716;2023-05-10T10:30:43;23.70;;;4.30;;
70457;SDS011;57919;56.194;95.716;2023-05-10T10:41:01;3.63;;;0.90;;
70457;SDS011;57919;56.194;95.716;2023-05-10T10:51:11;9.87;;;2.60;;
70457;SDS011;57919;56.194;95.716;2023-05-10T11:01:15;8.35;;;2.17;;
70457;SDS011;57919;56.194;95.716;2023-05-10T11:11:18;15.67;;;1.27;;
70457;SDS011;57919;56.194;95.716;2023-05-10T11:21:21;7.17;;;2.10;;
70457;SDS011;57919;56.194;95.716;2023-05-10T11:31:24;13.53;;;1.67;;
70457;SDS011;57919;56.194;95.716;2023-05-10T11:41:28;5.33;;;1.33;;
70457;SDS011;57919;56.194;95.716;2023-05-10T11:51:32;7.57;;;1.60;;
70457;SDS011;57919;56.194;95.716;2023-05-10T12:01:36;25.53;;;7.40;;
70457;SDS011;57919;56.194;95.716;2023-05-10T12:11:39;24.23;;;7.37;;
70457;SDS011;57919;56.194;95.716;2023-05-10T12:21:42;98.03;;;30.93;;
70457;SDS011;57919;56.194;95.716;2023-05-10T12:31:55;23.13;;;5.50;;
70457;SDS011;57919;56.194;95.716;2023-05-10T12:41:58;16.50;;;4.82;;
70457;SDS011;57919;56.194;95.716;2023-05-10T12:52:01;12.37;;;3.30;;
70457;SDS011;57919;56.194;95.716;2023-05-10T13:02:03;12.67;;;2.90;;
70457;SDS011;57919;56.194;95.716;2023-05-10T13:12:05;15.13;;;4.00;;
70457;SDS011;57919;56.194;95.716;2023-05-10T13:22:07;9.73;;;2.40;;
70457;SDS011;57919;56.194;95.716;2023-05-10T13:32:08;24.02;;;9.18;;
70457;SDS011;57919;56.194;95.716;2023-05-10T13:42:10;12.13;;;5.47;;
70457;SDS011;57919;56.194;95.716;2023-05-10T13:52:12;13.03;;;4.20;;
70457;SDS011;57919;56.194;95.716;2023-05-10T14:02:15;18.13;;;5.57;;
70457;SDS011;57919;56.194;95.716;2023-05-10T14:12:17;23.23;;;7.90;;
70457;SDS011;57919;56.194;95.716;2023-05-10T14:22:19;16.20;;;5.70;;
70457;SDS011;57919;56.194;95.716;2023-05-10T14:32:21;97.23;;;41.13;;
70457;SDS011;57919;56.194;95.716;2023-05-10T14:42:22;79.10;;;32.33;;
70457;SDS011;57919;56.194;95.716;2023-05-10T15:03:37;78.67;;;30.00;;
70457;SDS011;57919;56.194;95.716;2023-05-10T15:13:40;47.33;;;19.08;;
70457;SDS011;57919;56.194;95.716;2023-05-10T15:23:41;42.23;;;17.97;;
70457;SDS011;57919;56.194;95.716;2023-05-10T15:33:43;31.97;;;13.03;;
70457;SDS011;57919;56.194;95.716;2023-05-10T15:43:45;47.93;;;19.50;;
70457;SDS011;57919;56.194;95.716;2023-05-10T15:53:47;63.17;;;22.70;;
70457;SDS011;57919;56.194;95.716;2023-05-10T16:03:49;62.30;;;23.83;;
70457;SDS011;57919;56.194;95.716;2023-05-10T16:13:51;60.37;;;23.17;;
70457;SDS011;57919;56.194;95.716;2023-05-10T16:23:53;57.67;;;22.47;;
70457;SDS011;57919;56.194;95.716;2023-05-10T16:33:57;53.53;;;20.37;;
70457;SDS011;57919;56.194;95.716;2023-05-10T16:43:59;77.70;;;30.00;;
70457;SDS011;57919;56.194;95.716;2023-05-10T16:54:01;53.28;;;21.67;;
70457;SDS011;57919;56.194;95.716;2023-05-10T17:04:03;37.47;;;14.53;;
70457;SDS011;57919;56.194;95.716;2023-05-10T17:14:05;29.50;;;11.33;;
70457;SDS011;57919;56.194;95.716;2023-05-10T17:24:07;26.40;;;11.82;;
70457;SDS011;57919;56.194;95.716;2023-05-10T17:34:09;40.33;;;16.67;;
70457;SDS011;57919;56.194;95.716;2023-05-10T17:44:11;41.20;;;16.90;;
70457;SDS011;57919;56.194;95.716;2023-05-10T17:54:13;32.67;;;12.27;;
70457;SDS011;57919;56.194;95.716;2023-05-10T18:04:16;26.47;;;9.13;;
70457;SDS011;57919;56.194;95.716;2023-05-10T18:14:17;39.97;;;14.98;;
70457;SDS011;57919;56.194;95.716;2023-05-10T18:24:20;41.13;;;14.17;;
70457;SDS011;57919;56.194;95.716;2023-05-10T18:34:22;47.73;;;14.83;;
70457;SDS011;57919;56.194;95.716;2023-05-10T18:44:24;36.05;;;11.10;;
70457;SDS011;57919;56.194;95.716;2023-05-10T18:54:27;28.20;;;10.77;;
70457;SDS011;57919;56.194;95.716;2023-05-10T19:04:30;21.63;;;7.30;;
70457;SDS011;57919;56.194;95.716;2023-05-10T19:14:32;23.47;;;8.13;;
70457;SDS011;57919;56.194;95.716;2023-05-10T19:24:34;29.33;;;9.10;;
70457;SDS011;57919;56.194;95.716;2023-05-10T19:34:36;23.77;;;8.80;;
70457;SDS011;57919;56.194;95.716;2023-05-10T19:44:38;26.87;;;9.37;;
70457;SDS011;57919;56.194;95.716;2023-05-10T19:54:39;27.67;;;11.07;;
70457;SDS011;57919;56.194;95.716;2023-05-10T20:04:41;92.10;;;32.03;;
70457;SDS011;57919;56.194;95.716;2023-05-10T20:14:43;103.40;;;33.87;;
70457;SDS011;57919;56.194;95.716;2023-05-10T20:24:45;102.03;;;32.93;;
70457;SDS011;57919;56.194;95.716;2023-05-10T20:34:48;62.70;;;22.20;;
70457;SDS011;57919;56.194;95.716;2023-05-10T20:44:50;51.43;;;18.63;;
70457;SDS011;57919;56.194;95.716;2023-05-10T20:54:52;42.42;;;14.60;;
70457;SDS011;57919;56.194;95.716;2023-05-10T21:04:54;17.43;;;6.40;;
70457;SDS011;57919;56.194;95.716;2023-05-10T21:14:56;21.57;;;7.47;;
70457;SDS011;57919;56.194;95.716;2023-05-10T21:24:58;14.23;;;5.22;;
70457;SDS011;57919;56.194;95.716;2023-05-10T21:35:01;13.87;;;5.97;;
70457;SDS011;57919;56.194;95.716;2023-05-10T21:45:07;11.07;;;4.30;;
70457;SDS011;57919;56.194;95.716;2023-05-10T21:55:09;19.30;;;5.75;;
70457;SDS011;57919;56.194;95.716;2023-05-10T22:05:11;16.90;;;5.00;;
70457;SDS011;57919;56.194;95.716;2023-05-10T22:15:13;21.17;;;7.87;;
70457;SDS011;57919;56.194;95.716;2023-05-10T22:25:15;16.37;;;5.60;;
70457;SDS011;57919;56.194;95.716;2023-05-10T22:35:17;15.40;;;4.10;;
70457;SDS011;57919;56.194;95.716;2023-05-10T22:45:19;11.10;;;4.10;;
70457;SDS011;57919;56.194;95.716;2023-05-10T22:55:21;12.63;;;4.33;;
70457;SDS011;57919;56.194;95.716;2023-05-10T23:05:23;15.37;;;4.67;;
70457;SDS011;57919;56.194;95.716;2023-05-10T23:15:25;9.73;;;3.75;;
70457;SDS011;57919;56.194;95.716;2023-05-10T23:25:27;19.13;;;4.50;;
70457;SDS011;57919;56.194;95.716;2023-05-10T23:35:29;13.77;;;6.03;;
70457;SDS011;57919;56.194;95.716;2023-05-10T23:45:32;17.57;;;4.87;;
70457;SDS011;57919;56.194;95.716;2023-05-10T23:55:33;36.83;;;10.97;;
